sensor_id;sensor_type;location;lat;lon;timestamp;pressure;altitude;pressure_sealevel;temperature;humidity
9187;BME280;7273;48.902;9.410;2022-11-24T00:02:00;97301.63;;;7.52;83.48
9187;BME280;7273;48.902;9.410;2022-11-24T00:04:26;97309.13;;;7.55;83.10
9187;BME280;7273;48.902;9.410;2022-11-24T00:06:51;97304.31;;;7.52;83.40
9187;BME280;7273;48.902;9.410;2022-11-24T00:09:17;97307.53;;;7.54;83.52
9187;BME280;7273;48.902;9.410;2022-11-24T00:11:43;97299.75;;;7.52;83.44
9187;BME280;7273;48.902;9.410;2022-11-24T00:14:09;97314.00;;;7.48;83.27
9187;BME280;7273;48.902;9.410;2022-11-24T00:16:36;97308.88;;;7.51;82.98
9187;BME280;7273;48.902;9.410;2022-11-24T00:19:04;97313.47;;;7.51;82.94
9187;BME280;7273;48.902;9.410;2022-11-24T00:21:30;97314.50;;;7.55;83.39
9187;BME280;7273;48.902;9.410;2022-11-24T00:23:57;97312.09;;;7.53;82.91
9187;BME280;7273;48.902;9.410;2022-11-24T00:26:27;97320.97;;;7.54;82.62
9187;BME280;7273;48.902;9.410;2022-11-24T00:28:55;97325.00;;;7.51;82.21
9187;BME280;7273;48.902;9.410;2022-11-24T00:31:25;97317.47;;;7.53;82.88
9187;BME280;7273;48.902;9.410;2022-11-24T00:33:53;97316.97;;;7.46;82.19
9187;BME280;7273;48.902;9.410;2022-11-24T00:36:19;97324.50;;;7.49;83.04
9187;BME280;7273;48.902;9.410;2022-11-24T00:38:46;97329.06;;;7.49;82.57
9187;BME280;7273;48.902;9.410;2022-11-24T00:41:12;97332.84;;;7.48;82.80
9187;BME280;7273;48.902;9.410;2022-11-24T00:43:37;97330.19;;;7.43;82.29
9187;BME280;7273;48.902;9.410;2022-11-24T00:46:03;97329.91;;;7.44;82.55
9187;BME280;7273;48.902;9.410;2022-11-24T00:48:29;97333.94;;;7.42;82.53
9187;BME280;7273;48.902;9.410;2022-11-24T00:50:59;97333.66;;;7.38;82.42
9187;BME280;7273;48.902;9.410;2022-11-24T00:53:25;97338.00;;;7.34;82.95
9187;BME280;7273;48.902;9.410;2022-11-24T00:55:51;97346.34;;;7.28;82.64
9187;BME280;7273;48.902;9.410;2022-11-24T00:58:16;97345.53;;;7.22;82.52
9187;BME280;7273;48.902;9.410;2022-11-24T01:00:42;97355.25;;;7.13;82.13
9187;BME280;7273;48.902;9.410;2022-11-24T01:03:07;97351.75;;;7.13;82.53
9187;BME280;7273;48.902;9.410;2022-11-24T01:05:37;97360.38;;;7.10;81.89
9187;BME280;7273;48.902;9.410;2022-11-24T01:08:02;97361.19;;;7.00;82.35
9187;BME280;7273;48.902;9.410;2022-11-24T01:10:28;97358.22;;;6.97;82.31
9187;BME280;7273;48.902;9.410;2022-11-24T01:12:53;97361.47;;;6.94;82.13
9187;BME280;7273;48.902;9.410;2022-11-24T01:15:19;97367.91;;;6.98;82.28
9187;BME280;7273;48.902;9.410;2022-11-24T01:17:44;97363.59;;;6.97;82.65
9187;BME280;7273;48.902;9.410;2022-11-24T01:20:10;97362.25;;;6.94;82.98
9187;BME280;7273;48.902;9.410;2022-11-24T01:22:35;97367.13;;;6.92;82.51
9187;BME280;7273;48.902;9.410;2022-11-24T01:25:05;97366.84;;;6.94;82.34
9187;BME280;7273;48.902;9.410;2022-11-24T01:27:30;97376.78;;;6.93;82.55
9187;BME280;7273;48.902;9.410;2022-11-24T01:29:56;97375.97;;;6.93;83.24
9187;BME280;7273;48.902;9.410;2022-11-24T01:32:21;97385.94;;;6.92;83.37
9187;BME280;7273;48.902;9.410;2022-11-24T01:34:47;97377.59;;;6.94;83.57
9187;BME280;7273;48.902;9.410;2022-11-24T01:37:13;97384.84;;;6.93;84.30
9187;BME280;7273;48.902;9.410;2022-11-24T01:39:39;97389.94;;;6.95;84.05
9187;BME280;7273;48.902;9.410;2022-11-24T01:42:04;97387.25;;;6.95;84.64
9187;BME280;7273;48.902;9.410;2022-11-24T01:44:30;97391.53;;;6.96;84.69
9187;BME280;7273;48.902;9.410;2022-11-24T01:49:30;97387.25;;;7.00;84.62
9187;BME280;7273;48.902;9.410;2022-11-24T01:52:26;97395.59;;;7.03;83.94
9187;BME280;7273;48.902;9.410;2022-11-24T01:54:55;97393.16;;;7.07;83.47
9187;BME280;7273;48.902;9.410;2022-11-24T01:57:29;97388.34;;;7.09;83.35
9187;BME280;7273;48.902;9.410;2022-11-24T02:00:05;97397.44;;;7.13;82.61
9187;BME280;7273;48.902;9.410;2022-11-24T02:02:31;97394.22;;;7.16;82.35
9187;BME280;7273;48.902;9.410;2022-11-24T02:04:59;97406.06;;;7.20;82.37
9187;BME280;7273;48.902;9.410;2022-11-24T02:07:25;97403.09;;;7.21;81.92
9187;BME280;7273;48.902;9.410;2022-11-24T02:09:57;97404.97;;;7.21;81.96
9187;BME280;7273;48.902;9.410;2022-11-24T02:12:25;97406.06;;;7.25;81.79
9187;BME280;7273;48.902;9.410;2022-11-24T02:14:52;97403.38;;;7.25;82.21
9187;BME280;7273;48.902;9.410;2022-11-24T02:17:18;97408.19;;;7.28;81.63
9187;BME280;7273;48.902;9.410;2022-11-24T02:20:03;97417.06;;;7.28;82.31
9187;BME280;7273;48.902;9.410;2022-11-24T02:27:55;97424.31;;;7.33;83.85
9187;BME280;7273;48.902;9.410;2022-11-24T02:30:21;97423.25;;;7.34;83.61
9187;BME280;7273;48.902;9.410;2022-11-24T02:32:46;97422.97;;;7.35;83.06
9187;BME280;7273;48.902;9.410;2022-11-24T02:35:12;97436.69;;;7.39;82.34
9187;BME280;7273;48.902;9.410;2022-11-24T02:37:38;97432.66;;;7.41;81.91
9187;BME280;7273;48.902;9.410;2022-11-24T02:40:03;97424.31;;;7.38;81.60
9187;BME280;7273;48.902;9.410;2022-11-24T02:42:33;97427.78;;;7.38;81.76
9187;BME280;7273;48.902;9.410;2022-11-24T02:45:00;97433.72;;;7.35;81.34
9187;BME280;7273;48.902;9.410;2022-11-24T02:47:26;97437.78;;;7.38;81.73
9187;BME280;7273;48.902;9.410;2022-11-24T02:49:52;97434.53;;;7.36;81.68
9187;BME280;7273;48.902;9.410;2022-11-24T02:52:17;97432.66;;;7.41;81.71
9187;BME280;7273;48.902;9.410;2022-11-24T02:54:43;97423.50;;;7.37;81.84
9187;BME280;7273;48.902;9.410;2022-11-24T02:57:09;97433.44;;;7.37;81.73
9187;BME280;7273;48.902;9.410;2022-11-24T02:59:35;97425.66;;;7.40;81.07
9187;BME280;7273;48.902;9.410;2022-11-24T03:02:01;97422.19;;;7.40;81.16
9187;BME280;7273;48.902;9.410;2022-11-24T03:04:27;97431.03;;;7.40;81.17
9187;BME280;7273;48.902;9.410;2022-11-24T03:06:52;97435.63;;;7.40;81.21
9187;BME280;7273;48.902;9.410;2022-11-24T03:09:18;97429.44;;;7.39;81.17
9187;BME280;7273;48.902;9.410;2022-11-24T03:11:43;97440.19;;;7.34;81.36
9187;BME280;7273;48.902;9.410;2022-11-24T03:14:08;97435.91;;;7.28;81.65
9187;BME280;7273;48.902;9.410;2022-11-24T03:16:34;97443.97;;;7.28;81.19
9187;BME280;7273;48.902;9.410;2022-11-24T03:19:00;97444.25;;;7.22;81.54
9187;BME280;7273;48.902;9.410;2022-11-24T03:21:26;97445.31;;;7.21;81.52
9187;BME280;7273;48.902;9.410;2022-11-24T03:23:52;97442.34;;;7.22;81.76
9187;BME280;7273;48.902;9.410;2022-11-24T03:26:19;97447.72;;;7.22;81.49
9187;BME280;7273;48.902;9.410;2022-11-24T03:28:45;97448.00;;;7.21;81.65
9187;BME280;7273;48.902;9.410;2022-11-24T03:31:11;97455.78;;;7.22;81.65
9187;BME280;7273;48.902;9.410;2022-11-24T03:33:37;97450.41;;;7.17;81.34
9187;BME280;7273;48.902;9.410;2022-11-24T03:36:04;97456.06;;;7.21;81.95
9187;BME280;7273;48.902;9.410;2022-11-24T03:38:30;97462.78;;;7.23;81.39
9187;BME280;7273;48.902;9.410;2022-11-24T03:40:55;97455.25;;;7.20;81.65
9187;BME280;7273;48.902;9.410;2022-11-24T03:43:21;97459.56;;;7.21;81.92
9187;BME280;7273;48.902;9.410;2022-11-24T03:45:47;97467.91;;;7.25;82.19
9187;BME280;7273;48.902;9.410;2022-11-24T03:48:14;97466.00;;;7.25;81.95
9187;BME280;7273;48.902;9.410;2022-11-24T03:50:40;97470.03;;;7.28;81.46
9187;BME280;7273;48.902;9.410;2022-11-24T03:53:05;97471.91;;;7.27;81.69
9187;BME280;7273;48.902;9.410;2022-11-24T03:55:31;97486.72;;;7.30;82.27
9187;BME280;7273;48.902;9.410;2022-11-24T03:57:56;97478.91;;;7.33;81.49
9187;BME280;7273;48.902;9.410;2022-11-24T04:00:22;97476.75;;;7.35;82.02
9187;BME280;7273;48.902;9.410;2022-11-24T04:02:47;97481.34;;;7.35;82.17
9187;BME280;7273;48.902;9.410;2022-11-24T04:05:13;97488.88;;;7.38;81.89
9187;BME280;7273;48.902;9.410;2022-11-24T04:07:38;97481.34;;;7.40;81.59
9187;BME280;7273;48.902;9.410;2022-11-24T04:10:05;97483.75;;;7.41;81.36
9187;BME280;7273;48.902;9.410;2022-11-24T04:12:30;97486.69;;;7.45;81.47
9187;BME280;7273;48.902;9.410;2022-11-24T04:15:09;97497.22;;;7.46;81.38
9187;BME280;7273;48.902;9.410;2022-11-24T04:17:35;97503.09;;;7.48;81.42
9187;BME280;7273;48.902;9.410;2022-11-24T04:20:01;97491.28;;;7.49;82.32
9187;BME280;7273;48.902;9.410;2022-11-24T04:22:26;97499.88;;;7.51;81.92
9187;BME280;7273;48.902;9.410;2022-11-24T04:24:51;97512.00;;;7.54;81.59
9187;BME280;7273;48.902;9.410;2022-11-24T04:27:17;97499.34;;;7.54;81.39
9187;BME280;7273;48.902;9.410;2022-11-24T04:29:43;97499.34;;;7.54;81.33
9187;BME280;7273;48.902;9.410;2022-11-24T04:32:08;97503.38;;;7.57;81.45
9187;BME280;7273;48.902;9.410;2022-11-24T04:34:34;97504.97;;;7.58;81.14
9187;BME280;7273;48.902;9.410;2022-11-24T04:37:00;97516.28;;;7.60;81.55
9187;BME280;7273;48.902;9.410;2022-11-24T04:39:25;97513.59;;;7.60;81.11
9187;BME280;7273;48.902;9.410;2022-11-24T04:41:51;97523.81;;;7.63;81.35
9187;BME280;7273;48.902;9.410;2022-11-24T04:44:16;97520.84;;;7.64;81.44
9187;BME280;7273;48.902;9.410;2022-11-24T04:46:41;97515.47;;;7.64;80.76
9187;BME280;7273;48.902;9.410;2022-11-24T04:49:07;97523.53;;;7.69;81.16
9187;BME280;7273;48.902;9.410;2022-11-24T04:51:39;97522.47;;;7.70;80.96
9187;BME280;7273;48.902;9.410;2022-11-24T04:54:09;97527.56;;;7.72;80.83
9187;BME280;7273;48.902;9.410;2022-11-24T04:56:35;97516.81;;;7.77;80.69
9187;BME280;7273;48.902;9.410;2022-11-24T04:59:01;97518.41;;;7.78;80.56
9187;BME280;7273;48.902;9.410;2022-11-24T05:01:27;97523.50;;;7.79;80.64
9187;BME280;7273;48.902;9.410;2022-11-24T05:03:53;97517.06;;;7.80;80.42
9187;BME280;7273;48.902;9.410;2022-11-24T05:06:19;97520.28;;;7.82;80.87
9187;BME280;7273;48.902;9.410;2022-11-24T05:08:48;97531.31;;;7.81;80.21
9187;BME280;7273;48.902;9.410;2022-11-24T05:11:15;97529.72;;;7.85;80.21
9187;BME280;7273;48.902;9.410;2022-11-24T05:13:40;97527.28;;;7.83;80.21
9187;BME280;7273;48.902;9.410;2022-11-24T05:16:06;97524.34;;;7.80;79.84
9187;BME280;7273;48.902;9.410;2022-11-24T05:18:32;97521.38;;;7.81;80.08
9187;BME280;7273;48.902;9.410;2022-11-24T05:20:57;97530.25;;;7.82;80.16
9187;BME280;7273;48.902;9.410;2022-11-24T05:23:24;97533.75;;;7.82;80.09
9187;BME280;7273;48.902;9.410;2022-11-24T05:25:50;97527.56;;;7.87;79.62
9187;BME280;7273;48.902;9.410;2022-11-24T05:28:17;97538.31;;;7.87;80.01
9187;BME280;7273;48.902;9.410;2022-11-24T05:30:43;97539.13;;;7.87;79.93
9187;BME280;7273;48.902;9.410;2022-11-24T05:33:14;97547.19;;;7.87;79.91
9187;BME280;7273;48.902;9.410;2022-11-24T05:35:47;97549.09;;;7.87;80.08
9187;BME280;7273;48.902;9.410;2022-11-24T05:38:13;97550.41;;;7.89;79.75
9187;BME280;7273;48.902;9.410;2022-11-24T05:40:40;97552.28;;;7.89;79.89
9187;BME280;7273;48.902;9.410;2022-11-24T05:43:13;97555.53;;;7.91;79.99
9187;BME280;7273;48.902;9.410;2022-11-24T05:45:39;97560.91;;;7.91;79.79
9187;BME280;7273;48.902;9.410;2022-11-24T05:48:09;97555.81;;;7.89;80.04
9187;BME280;7273;48.902;9.410;2022-11-24T05:50:36;97551.78;;;7.92;79.87
9187;BME280;7273;48.902;9.410;2022-11-24T05:53:08;97557.94;;;7.92;79.32
9187;BME280;7273;48.902;9.410;2022-11-24T05:55:34;97559.03;;;7.91;79.83
9187;BME280;7273;48.902;9.410;2022-11-24T05:58:02;97560.13;;;7.90;79.83
9187;BME280;7273;48.902;9.410;2022-11-24T06:00:28;97555.25;;;7.87;79.51
9187;BME280;7273;48.902;9.410;2022-11-24T06:02:56;97549.88;;;7.87;79.68
9187;BME280;7273;48.902;9.410;2022-11-24T06:05:22;97550.97;;;7.86;79.96
9187;BME280;7273;48.902;9.410;2022-11-24T06:07:47;97547.19;;;7.87;79.89
9187;BME280;7273;48.902;9.410;2022-11-24T06:10:14;97542.06;;;7.86;80.06
9187;BME280;7273;48.902;9.410;2022-11-24T06:12:40;97547.47;;;7.86;79.68
9187;BME280;7273;48.902;9.410;2022-11-24T06:15:06;97536.19;;;7.84;79.46
9187;BME280;7273;48.902;9.410;2022-11-24T06:17:31;97546.94;;;7.84;80.00
9187;BME280;7273;48.902;9.410;2022-11-24T06:19:57;97552.34;;;7.84;79.89
9187;BME280;7273;48.902;9.410;2022-11-24T06:22:22;97550.44;;;7.84;79.99
9187;BME280;7273;48.902;9.410;2022-11-24T06:24:48;97548.28;;;7.86;80.05
9187;BME280;7273;48.902;9.410;2022-11-24T06:27:14;97556.06;;;7.88;79.49
9187;BME280;7273;48.902;9.410;2022-11-24T06:29:40;97563.59;;;7.91;79.07
9187;BME280;7273;48.902;9.410;2022-11-24T06:32:05;97555.25;;;7.92;80.35
9187;BME280;7273;48.902;9.410;2022-11-24T06:34:31;97560.09;;;8.05;80.91
9187;BME280;7273;48.902;9.410;2022-11-24T06:36:56;97560.63;;;8.02;79.57
9187;BME280;7273;48.902;9.410;2022-11-24T06:39:22;97566.53;;;8.19;80.10
9187;BME280;7273;48.902;9.410;2022-11-24T06:41:50;97568.97;;;8.16;79.54
9187;BME280;7273;48.902;9.410;2022-11-24T06:44:16;97574.34;;;8.16;79.50
9187;BME280;7273;48.902;9.410;2022-11-24T06:46:42;97582.97;;;8.18;78.92
9187;BME280;7273;48.902;9.410;2022-11-24T06:49:07;97577.03;;;8.16;78.87
9187;BME280;7273;48.902;9.410;2022-11-24T06:51:33;97582.44;;;8.16;79.54
9187;BME280;7273;48.902;9.410;2022-11-24T06:53:58;97584.56;;;8.19;79.20
9187;BME280;7273;48.902;9.410;2022-11-24T06:56:24;97586.16;;;8.20;78.55
9187;BME280;7273;48.902;9.410;2022-11-24T06:58:51;97584.28;;;8.20;78.76
9187;BME280;7273;48.902;9.410;2022-11-24T07:01:22;97580.00;;;8.19;78.92
9187;BME280;7273;48.902;9.410;2022-11-24T07:03:48;97589.41;;;8.22;79.04
9187;BME280;7273;48.902;9.410;2022-11-24T07:06:15;97603.69;;;8.23;78.87
9187;BME280;7273;48.902;9.410;2022-11-24T07:08:40;97604.50;;;8.18;79.61
9187;BME280;7273;48.902;9.410;2022-11-24T07:11:09;97600.72;;;8.14;79.69
9187;BME280;7273;48.902;9.410;2022-11-24T07:13:34;97597.78;;;8.10;79.49
9187;BME280;7273;48.902;9.410;2022-11-24T07:16:13;97601.81;;;8.08;79.85
9187;BME280;7273;48.902;9.410;2022-11-24T07:18:39;97609.91;;;8.08;79.55
9187;BME280;7273;48.902;9.410;2022-11-24T07:21:05;97612.06;;;8.06;80.10
9187;BME280;7273;48.902;9.410;2022-11-24T07:23:30;97624.69;;;8.05;79.94
9187;BME280;7273;48.902;9.410;2022-11-24T07:25:56;97625.53;;;8.06;79.75
9187;BME280;7273;48.902;9.410;2022-11-24T07:28:21;97636.56;;;7.99;81.03
9187;BME280;7273;48.902;9.410;2022-11-24T07:30:46;97649.22;;;7.99;80.45
9187;BME280;7273;48.902;9.410;2022-11-24T07:33:12;97642.50;;;7.91;81.23
9187;BME280;7273;48.902;9.410;2022-11-24T07:35:37;97654.59;;;7.89;80.78
9187;BME280;7273;48.902;9.410;2022-11-24T07:38:03;97656.50;;;7.83;81.28
9187;BME280;7273;48.902;9.410;2022-11-24T07:40:28;97657.59;;;7.77;80.67
9187;BME280;7273;48.902;9.410;2022-11-24T07:42:53;97674.78;;;7.71;82.00
9187;BME280;7273;48.902;9.410;2022-11-24T07:45:19;97671.28;;;7.66;82.84
9187;BME280;7273;48.902;9.410;2022-11-24T07:47:45;97671.00;;;7.62;82.37
9187;BME280;7273;48.902;9.410;2022-11-24T07:50:11;97674.75;;;7.56;82.22
9187;BME280;7273;48.902;9.410;2022-11-24T07:52:37;97674.75;;;7.51;83.72
9187;BME280;7273;48.902;9.410;2022-11-24T07:55:03;97688.72;;;7.48;84.06
9187;BME280;7273;48.902;9.410;2022-11-24T07:57:29;97692.22;;;7.44;85.13
9187;BME280;7273;48.902;9.410;2022-11-24T07:59:55;97703.25;;;7.42;84.44
9187;BME280;7273;48.902;9.410;2022-11-24T08:02:20;97693.81;;;7.35;85.31
9187;BME280;7273;48.902;9.410;2022-11-24T08:04:46;97701.06;;;7.34;84.50
9187;BME280;7273;48.902;9.410;2022-11-24T08:07:11;97700.78;;;7.31;85.66
9187;BME280;7273;48.902;9.410;2022-11-24T08:09:36;97703.47;;;7.26;84.73
9187;BME280;7273;48.902;9.410;2022-11-24T08:12:02;97704.53;;;7.25;84.32
9187;BME280;7273;48.902;9.410;2022-11-24T08:14:27;97696.47;;;7.25;84.68
9187;BME280;7273;48.902;9.410;2022-11-24T08:16:53;97694.84;;;7.29;83.74
9187;BME280;7273;48.902;9.410;2022-11-24T08:19:18;97680.06;;;7.26;84.01
9187;BME280;7273;48.902;9.410;2022-11-24T08:21:44;97692.44;;;7.27;84.49
9187;BME280;7273;48.902;9.410;2022-11-24T08:24:09;97693.25;;;7.28;83.64
9187;BME280;7273;48.902;9.410;2022-11-24T08:26:35;97699.44;;;7.28;84.60
9187;BME280;7273;48.902;9.410;2022-11-24T08:29:00;97700.25;;;7.29;85.01
9187;BME280;7273;48.902;9.410;2022-11-24T08:31:27;97705.63;;;7.29;86.10
9187;BME280;7273;48.902;9.410;2022-11-24T08:33:58;97706.16;;;7.31;85.64
9187;BME280;7273;48.902;9.410;2022-11-24T08:36:23;97710.22;;;7.28;86.32
9187;BME280;7273;48.902;9.410;2022-11-24T08:38:56;97712.63;;;7.30;86.93
9187;BME280;7273;48.902;9.410;2022-11-24T08:41:21;97715.31;;;7.30;87.37
9187;BME280;7273;48.902;9.410;2022-11-24T08:43:47;97719.34;;;7.32;86.95
9187;BME280;7273;48.902;9.410;2022-11-24T08:46:14;97708.84;;;7.31;86.47
9187;BME280;7273;48.902;9.410;2022-11-24T08:48:47;97706.19;;;7.36;85.29
9187;BME280;7273;48.902;9.410;2022-11-24T08:51:16;97708.59;;;7.37;84.70
9187;BME280;7273;48.902;9.410;2022-11-24T08:53:42;97709.44;;;7.38;84.17
9187;BME280;7273;48.902;9.410;2022-11-24T08:56:08;97719.09;;;7.39;85.77
9187;BME280;7273;48.902;9.410;2022-11-24T08:58:35;97726.91;;;7.40;85.80
9187;BME280;7273;48.902;9.410;2022-11-24T09:01:15;97733.09;;;7.41;85.94
9187;BME280;7273;48.902;9.410;2022-11-24T09:03:42;97725.59;;;7.43;86.73
9187;BME280;7273;48.902;9.410;2022-11-24T09:06:08;97727.47;;;7.47;85.99
9187;BME280;7273;48.902;9.410;2022-11-24T09:08:35;97723.69;;;7.48;85.70
9187;BME280;7273;48.902;9.410;2022-11-24T09:11:06;97729.09;;;7.48;84.77
9187;BME280;7273;48.902;9.410;2022-11-24T09:13:33;97744.69;;;7.51;84.81
9187;BME280;7273;48.902;9.410;2022-11-24T09:16:06;97736.38;;;7.53;84.92
9187;BME280;7273;48.902;9.410;2022-11-24T09:18:32;97743.38;;;7.54;85.53
9187;BME280;7273;48.902;9.410;2022-11-24T09:21:09;97735.28;;;7.54;85.02
9187;BME280;7273;48.902;9.410;2022-11-24T09:23:35;97757.66;;;7.59;84.97
9187;BME280;7273;48.902;9.410;2022-11-24T09:26:11;97757.91;;;7.63;84.42
9187;BME280;7273;48.902;9.410;2022-11-24T09:28:37;97768.16;;;7.66;85.14
9187;BME280;7273;48.902;9.410;2022-11-24T09:31:05;97773.31;;;7.72;84.46
9187;BME280;7273;48.902;9.410;2022-11-24T09:33:31;97773.56;;;7.76;84.53
9187;BME280;7273;48.902;9.410;2022-11-24T09:35:57;97779.78;;;7.81;84.42
9187;BME280;7273;48.902;9.410;2022-11-24T09:38:23;97772.78;;;7.80;84.34
9187;BME280;7273;48.902;9.410;2022-11-24T09:40:49;97777.06;;;7.81;84.26
9187;BME280;7273;48.902;9.410;2022-11-24T09:43:42;97787.84;;;7.86;83.54
9187;BME280;7273;48.902;9.410;2022-11-24T09:46:22;97792.44;;;7.86;83.46
9187;BME280;7273;48.902;9.410;2022-11-24T09:48:52;97790.00;;;7.84;84.62
9187;BME280;7273;48.902;9.410;2022-11-24T09:51:21;97792.69;;;7.84;83.96
9187;BME280;7273;48.902;9.410;2022-11-24T09:53:56;97800.22;;;7.87;83.84
9187;BME280;7273;48.902;9.410;2022-11-24T09:56:25;97799.72;;;7.90;83.99
9187;BME280;7273;48.902;9.410;2022-11-24T10:01:43;97808.88;;;7.94;82.72
9187;BME280;7273;48.902;9.410;2022-11-24T10:10:17;97826.38;;;7.92;82.63
9187;BME280;7273;48.902;9.410;2022-11-24T10:15:22;97822.34;;;7.94;81.96
9187;BME280;7273;48.902;9.410;2022-11-24T10:20:51;97826.91;;;7.94;82.60
9187;BME280;7273;48.902;9.410;2022-11-24T10:25:58;97830.16;;;8.01;82.43
9187;BME280;7273;48.902;9.410;2022-11-24T10:28:47;97824.78;;;8.01;82.20
9187;BME280;7273;48.902;9.410;2022-11-24T10:31:42;97823.97;;;8.05;83.06
9187;BME280;7273;48.902;9.410;2022-11-24T10:34:24;97821.56;;;8.09;83.37
9187;BME280;7273;48.902;9.410;2022-11-24T10:37:31;97825.34;;;8.13;82.78
9187;BME280;7273;48.902;9.410;2022-11-24T10:42:50;97829.16;;;8.27;82.72
9187;BME280;7273;48.902;9.410;2022-11-24T10:45:18;97827.84;;;8.35;81.64
9187;BME280;7273;48.902;9.410;2022-11-24T10:47:46;97823.78;;;8.37;81.69
9187;BME280;7273;48.902;9.410;2022-11-24T10:50:22;97817.88;;;8.45;81.45
9187;BME280;7273;48.902;9.410;2022-11-24T10:53:19;97828.09;;;8.48;81.33
9187;BME280;7273;48.902;9.410;2022-11-24T10:58:22;97811.94;;;8.53;81.79
9187;BME280;7273;48.902;9.410;2022-11-24T11:00:48;97820.56;;;8.50;81.55
9187;BME280;7273;48.902;9.410;2022-11-24T11:03:22;97816.53;;;8.48;81.44
9187;BME280;7273;48.902;9.410;2022-11-24T11:10:40;97815.47;;;8.54;81.61
9187;BME280;7273;48.902;9.410;2022-11-24T11:15:45;97805.47;;;8.64;81.49
9187;BME280;7273;48.902;9.410;2022-11-24T11:18:14;97806.56;;;8.68;81.22
9187;BME280;7273;48.902;9.410;2022-11-24T11:20:48;97819.50;;;8.81;80.83
9187;BME280;7273;48.902;9.410;2022-11-24T11:23:24;97811.94;;;8.98;80.63
9187;BME280;7273;48.902;9.410;2022-11-24T11:28:56;97821.59;;;9.19;80.75
9187;BME280;7273;48.902;9.410;2022-11-24T11:31:23;97812.41;;;9.25;80.14
9187;BME280;7273;48.902;9.410;2022-11-24T11:34:11;97816.97;;;9.30;80.14
9187;BME280;7273;48.902;9.410;2022-11-24T11:36:51;97819.38;;;9.41;79.94
9187;BME280;7273;48.902;9.410;2022-11-24T11:39:31;97825.56;;;9.42;79.73
9187;BME280;7273;48.902;9.410;2022-11-24T11:45:02;97822.31;;;9.50;79.48
9187;BME280;7273;48.902;9.410;2022-11-24T11:47:41;97817.72;;;9.50;79.08
9187;BME280;7273;48.902;9.410;2022-11-24T11:50:18;97820.16;;;9.52;79.17
9187;BME280;7273;48.902;9.410;2022-11-24T11:55:43;97819.88;;;9.48;79.00
9187;BME280;7273;48.902;9.410;2022-11-24T12:23:35;97841.72;;;9.57;79.16
9187;BME280;7273;48.902;9.410;2022-11-24T12:28:45;97855.78;;;9.54;79.58
9187;BME280;7273;48.902;9.410;2022-11-24T12:31:27;97849.56;;;9.53;79.64
9187;BME280;7273;48.902;9.410;2022-11-24T12:34:27;97855.50;;;9.56;79.62
9187;BME280;7273;48.902;9.410;2022-11-24T12:39:26;97842.75;;;9.66;79.68
9187;BME280;7273;48.902;9.410;2022-11-24T12:47:21;97852.19;;;9.79;79.65
9187;BME280;7273;48.902;9.410;2022-11-24T12:52:38;97848.38;;;9.80;79.72
9187;BME280;7273;48.902;9.410;2022-11-24T12:55:12;97848.94;;;9.82;78.82
9187;BME280;7273;48.902;9.410;2022-11-24T12:57:46;97848.38;;;9.80;78.32
9187;BME280;7273;48.902;9.410;2022-11-24T13:00:26;97860.28;;;9.79;78.38
9187;BME280;7273;48.902;9.410;2022-11-24T13:06:06;97867.03;;;9.71;77.83
9187;BME280;7273;48.902;9.410;2022-11-24T13:08:34;97866.78;;;9.68;77.34
9187;BME280;7273;48.902;9.410;2022-11-24T13:16:23;97863.03;;;9.64;76.91
9187;BME280;7273;48.902;9.410;2022-11-24T13:18:52;97865.75;;;9.64;77.18
9187;BME280;7273;48.902;9.410;2022-11-24T13:24:05;97863.00;;;9.79;77.87
9187;BME280;7273;48.902;9.410;2022-11-24T13:26:46;97862.13;;;9.88;77.89
9187;BME280;7273;48.902;9.410;2022-11-24T13:29:37;97869.13;;;9.94;78.10
9187;BME280;7273;48.902;9.410;2022-11-24T13:37:05;97871.81;;;9.99;78.58
9187;BME280;7273;48.902;9.410;2022-11-24T13:42:21;97871.50;;;10.06;78.87
9187;BME280;7273;48.902;9.410;2022-11-24T13:45:03;97874.78;;;10.08;78.45
9187;BME280;7273;48.902;9.410;2022-11-24T13:47:43;97879.34;;;10.12;78.57
9187;BME280;7273;48.902;9.410;2022-11-24T13:52:52;97873.66;;;10.09;78.38
9187;BME280;7273;48.902;9.410;2022-11-24T13:55:28;97871.22;;;10.07;78.35
9187;BME280;7273;48.902;9.410;2022-11-24T13:58:04;97880.72;;;10.00;78.66
9187;BME280;7273;48.902;9.410;2022-11-24T14:09:20;97867.81;;;9.87;77.73
9187;BME280;7273;48.902;9.410;2022-11-24T14:11:56;97874.56;;;9.84;78.21
9187;BME280;7273;48.902;9.410;2022-11-24T14:14:22;97876.44;;;9.84;77.35
9187;BME280;7273;48.902;9.410;2022-11-24T14:19:49;97869.41;;;9.93;77.62
9187;BME280;7273;48.902;9.410;2022-11-24T14:22:23;97872.06;;;9.98;77.70
9187;BME280;7273;48.902;9.410;2022-11-24T14:24:57;97876.66;;;9.97;77.73
9187;BME280;7273;48.902;9.410;2022-11-24T14:27:29;97877.75;;;10.01;77.81
9187;BME280;7273;48.902;9.410;2022-11-24T14:30:00;97879.06;;;10.04;77.59
9187;BME280;7273;48.902;9.410;2022-11-24T14:32:26;97876.09;;;10.05;77.41
9187;BME280;7273;48.902;9.410;2022-11-24T14:34:51;97887.19;;;10.09;77.36
9187;BME280;7273;48.902;9.410;2022-11-24T14:37:18;97885.00;;;10.11;77.49
9187;BME280;7273;48.902;9.410;2022-11-24T14:39:44;97887.72;;;10.11;77.58
9187;BME280;7273;48.902;9.410;2022-11-24T14:42:22;97885.84;;;10.11;77.49
9187;BME280;7273;48.902;9.410;2022-11-24T14:47:36;97891.22;;;10.16;77.11
9187;BME280;7273;48.902;9.410;2022-11-24T14:50:11;97887.97;;;10.14;76.78
9187;BME280;7273;48.902;9.410;2022-11-24T14:53:09;97889.88;;;10.14;76.91
9187;BME280;7273;48.902;9.410;2022-11-24T14:55:38;97892.28;;;10.15;76.92
9187;BME280;7273;48.902;9.410;2022-11-24T14:58:18;97890.13;;;10.12;77.12
9187;BME280;7273;48.902;9.410;2022-11-24T15:00:44;97901.78;;;10.08;77.07
9187;BME280;7273;48.902;9.410;2022-11-24T15:03:30;97909.34;;;10.01;77.22
9187;BME280;7273;48.902;9.410;2022-11-24T15:05:57;97906.69;;;9.91;77.57
9187;BME280;7273;48.902;9.410;2022-11-24T15:08:26;97912.63;;;9.88;77.42
9187;BME280;7273;48.902;9.410;2022-11-24T15:10:56;97909.13;;;9.87;76.26
9187;BME280;7273;48.902;9.410;2022-11-24T15:13:23;97920.75;;;9.78;77.09
9187;BME280;7273;48.902;9.410;2022-11-24T15:16:01;97922.91;;;9.81;77.43
9187;BME280;7273;48.902;9.410;2022-11-24T15:18:42;97919.16;;;9.77;77.26
9187;BME280;7273;48.902;9.410;2022-11-24T15:21:09;97917.78;;;9.74;77.44
9187;BME280;7273;48.902;9.410;2022-11-24T15:23:35;97914.59;;;9.72;77.67
9187;BME280;7273;48.902;9.410;2022-11-24T15:28:30;97927.53;;;9.70;78.04
9187;BME280;7273;48.902;9.410;2022-11-24T15:31:04;97921.31;;;9.70;78.38
9187;BME280;7273;48.902;9.410;2022-11-24T15:33:30;97925.13;;;9.64;78.54
9187;BME280;7273;48.902;9.410;2022-11-24T15:35:56;97931.09;;;9.61;78.74
9187;BME280;7273;48.902;9.410;2022-11-24T15:38:22;97926.47;;;9.61;78.64
9187;BME280;7273;48.902;9.410;2022-11-24T15:40:49;97928.38;;;9.56;78.73
9187;BME280;7273;48.902;9.410;2022-11-24T15:43:36;97933.25;;;9.53;79.35
9187;BME280;7273;48.902;9.410;2022-11-24T15:46:04;97932.16;;;9.49;79.46